Terminal Aerodrome Forecast
Issued by NWS Shreveport, LA

Home | Current Version | Previous Version | Text Only | Print | Product List | Glossary On
Versions: 1 2 3 4 5 6 7 8 9 10 11 12 13 14 15
000
FTUS44 KSHV 200520
TAFTXK
TAF
KTXK 200520Z 2006/2106 17007KT P6SM OVC050
      TEMPO 2008/2012 OVC030
     FM201200 17007KT P6SM OVC025
      TEMPO 2012/2015 OVC008
     FM201500 17010KT P6SM OVC008
     FM201800 18010KT P6SM OVC010
     FM210000 16010KT 5SM BR OVC008=

USA.gov is the U.S. government's official web portal to all federal, state and local government web resources and services.